Time;durP1;ratioP1;P1;durP2;ratioP2;P2;SDS_P1;SDS_P2;PMS_P1;PMS_P2;Temp;Humidity;BMP_temperature;BMP_pressure;BME280_temperature;BME280_humidity;BME280_pressure;Samples;Min_cycle;Max_cycle;Signal;HPM_P1;HPM_P2
2023/11/11 00:02:14;;;;;;;1.60;1.20;;;7.40;98.20;;;;;;5003853;28;20490;-78
2023/11/11 00:04:42;;;;;;;1.60;1.30;;;7.40;98.20;;;;;;5012832;28;20476;-78
2023/11/11 00:07:10;;;;;;;1.60;1.20;;;7.50;98.20;;;;;;4995093;28;20480;-78
2023/11/11 00:09:38;;;;;;;1.60;1.20;;;7.50;98.20;;;;;;5010900;28;20481;-78
2023/11/11 00:12:07;;;;;;;1.60;1.30;;;7.50;98.20;;;;;;5001620;28;20515;-78
2023/11/11 00:14:34;;;;;;;1.60;1.20;;;7.50;98.20;;;;;;5012551;28;20492;-78
2023/11/11 00:17:01;;;;;;;1.60;1.30;;;7.60;98.20;;;;;;5001714;28;20476;-78
2023/11/11 00:19:29;;;;;;;1.60;1.20;;;7.60;98.20;;;;;;5008012;28;20461;-78
2023/11/11 00:21:57;;;;;;;1.60;1.33;;;7.60;98.20;;;;;;5001103;28;20490;-78
2023/11/11 00:24:23;;;;;;;1.60;1.20;;;7.60;98.20;;;;;;5011350;28;20484;-78
2023/11/11 00:26:50;;;;;;;1.60;1.40;;;7.60;98.20;;;;;;4997910;28;20570;-78
2023/11/11 00:29:17;;;;;;;1.60;1.20;;;7.70;98.20;;;;;;5023730;28;20834;-77
2023/11/11 00:31:47;;;;;;;1.60;1.20;;;7.70;98.20;;;;;;5010622;28;20863;-78
2023/11/11 00:34:15;;;;;;;1.63;1.33;;;7.70;98.20;;;;;;5018904;28;20484;-79
2023/11/11 00:36:42;;;;;;;1.60;1.20;;;7.70;98.20;;;;;;5007554;28;20475;-78
2023/11/11 00:39:11;;;;;;;1.60;1.30;;;7.70;98.20;;;;;;5015218;28;21038;-79
2023/11/11 00:41:39;;;;;;;1.60;1.20;;;7.70;98.20;;;;;;5010906;28;20929;-78
2023/11/11 00:44:09;;;;;;;1.60;1.30;;;7.70;98.20;;;;;;5028715;28;20479;-78
2023/11/11 00:46:37;;;;;;;1.60;1.30;;;7.70;98.20;;;;;;5012025;28;21060;-79
2023/11/11 00:49:04;;;;;;;1.60;1.30;;;7.80;98.20;;;;;;5023974;28;20464;-78
2023/11/11 00:51:31;;;;;;;1.60;1.20;;;7.80;98.20;;;;;;5005558;28;20480;-77
2023/11/11 00:53:58;;;;;;;1.60;1.27;;;7.80;98.20;;;;;;5013386;28;20488;-79
2023/11/11 00:56:26;;;;;;;1.60;1.20;;;7.80;98.20;;;;;;5005769;28;20491;-78
2023/11/11 00:58:53;;;;;;;1.60;1.30;;;7.80;98.20;;;;;;5025904;28;20458;-77
2023/11/11 01:01:20;;;;;;;1.60;1.20;;;7.80;98.20;;;;;;5012460;28;21070;-78
2023/11/11 01:03:47;;;;;;;1.60;1.30;;;7.80;98.20;;;;;;5015095;28;20460;-78
2023/11/11 01:06:14;;;;;;;1.60;1.20;;;7.80;98.20;;;;;;4999561;28;20483;-78
2023/11/11 01:08:41;;;;;;;1.60;1.30;;;7.90;98.20;;;;;;5014184;28;20460;-78
2023/11/11 01:11:08;;;;;;;1.60;1.20;;;7.90;98.20;;;;;;5007318;28;20469;-78
2023/11/11 01:13:37;;;;;;;1.60;1.20;;;7.90;98.20;;;;;;5027640;28;20530;-78
2023/11/11 01:16:04;;;;;;;1.60;1.30;;;7.90;98.20;;;;;;5004338;28;20559;-78
2023/11/11 01:18:31;;;;;;;1.60;1.30;;;7.90;98.20;;;;;;5030796;28;20973;-78
2023/11/11 01:20:58;;;;;;;1.60;1.20;;;8.00;98.20;;;;;;5007800;28;20459;-78
2023/11/11 01:23:25;;;;;;;1.60;1.20;;;8.00;98.20;;;;;;5018426;28;20496;-78
2023/11/11 01:25:52;;;;;;;1.60;1.27;;;8.00;98.20;;;;;;5003791;28;20924;-77
2023/11/11 01:28:19;;;;;;;1.60;1.27;;;8.00;98.20;;;;;;4984368;23;20502;-86
2023/11/11 01:30:48;;;;;;;1.60;1.30;;;8.00;98.20;;;;;;4970200;28;20561;-88
2023/11/11 01:33:15;;;;;;;1.60;1.20;;;8.10;98.20;;;;;;4967496;28;20475;-86
2023/11/11 01:35:42;;;;;;;1.60;1.40;;;8.10;98.20;;;;;;4947848;29;21017;-87
2023/11/11 01:38:10;;;;;;;1.60;1.20;;;8.10;98.20;;;;;;4965833;28;20478;-88
2023/11/11 01:40:37;;;;;;;2.00;1.70;;;8.10;98.20;;;;;;4964832;28;20462;-88
2023/11/11 01:43:08;;;;;;;1.70;1.40;;;8.10;98.20;;;;;;4973986;28;20477;-88
2023/11/11 01:45:35;;;;;;;1.60;1.30;;;8.10;98.20;;;;;;4960846;28;20958;-88
2023/11/11 01:48:03;;;;;;;1.60;1.20;;;8.00;98.20;;;;;;4976612;28;20477;-87
2023/11/11 01:50:30;;;;;;;1.60;1.20;;;8.00;98.20;;;;;;4963727;28;20465;-87
2023/11/11 01:52:57;;;;;;;1.60;1.30;;;8.00;98.20;;;;;;4943409;28;20619;-84
2023/11/11 01:55:25;;;;;;;1.60;1.30;;;8.00;98.20;;;;;;4953167;28;20501;-86
2023/11/11 01:57:52;;;;;;;3.47;3.17;;;7.90;98.20;;;;;;4939897;28;20490;-85
2023/11/11 02:00:21;;;;;;;1.60;1.10;;;7.90;98.20;;;;;;4955590;28;20481;-88
2023/11/11 02:02:48;;;;;;;1.60;1.27;;;7.90;98.20;;;;;;4947114;28;20482;-86
2023/11/11 02:05:16;;;;;;;1.60;1.30;;;7.90;98.20;;;;;;4951836;28;20463;-85
2023/11/11 02:07:43;;;;;;;1.60;1.17;;;7.80;98.20;;;;;;4938547;28;20521;-84
2023/11/11 02:10:11;;;;;;;1.60;1.10;;;7.80;98.20;;;;;;4951017;28;20468;-86
2023/11/11 02:12:38;;;;;;;1.60;1.20;;;7.80;98.20;;;;;;4946905;28;20490;-85
2023/11/11 02:15:05;;;;;;;1.60;1.20;;;7.70;98.20;;;;;;4957206;28;20591;-87
2023/11/11 02:17:32;;;;;;;1.60;1.30;;;7.70;98.20;;;;;;4937196;28;20558;-86
2023/11/11 02:20:00;;;;;;;1.60;1.40;;;7.70;98.20;;;;;;4957875;29;20557;-85
2023/11/11 02:22:27;;;;;;;1.60;1.30;;;7.70;98.20;;;;;;4941638;28;20487;-85
2023/11/11 02:24:57;;;;;;;1.67;1.40;;;7.60;98.20;;;;;;4956012;28;20480;-84
2023/11/11 02:27:24;;;;;;;1.60;1.20;;;7.70;98.20;;;;;;4940932;28;20490;-85
2023/11/11 02:29:51;;;;;;;1.60;1.20;;;7.70;98.20;;;;;;4962955;28;20506;-87
2023/11/11 02:32:18;;;;;;;1.60;1.40;;;7.70;98.20;;;;;;4961404;28;20950;-86
2023/11/11 02:34:45;;;;;;;1.60;1.30;;;7.70;98.20;;;;;;4960430;28;20539;-89
2023/11/11 02:37:12;;;;;;;1.70;1.40;;;7.70;98.20;;;;;;4945396;28;20483;-86
2023/11/11 02:39:40;;;;;;;1.70;1.40;;;7.70;98.20;;;;;;4957794;28;20467;-84
2023/11/11 02:42:08;;;;;;;1.60;1.20;;;7.70;98.20;;;;;;4962453;28;20508;-86
2023/11/11 02:44:35;;;;;;;1.60;1.30;;;7.70;98.20;;;;;;4968034;28;20471;-86
2023/11/11 02:47:02;;;;;;;1.60;1.30;;;7.70;98.20;;;;;;4957889;28;21522;-85
2023/11/11 02:49:29;;;;;;;1.60;1.20;;;7.70;98.20;;;;;;4963025;28;20508;-86
2023/11/11 02:51:56;;;;;;;1.60;1.23;;;7.70;98.20;;;;;;4945935;28;20517;-86
2023/11/11 02:54:23;;;;;;;1.60;1.20;;;7.70;98.20;;;;;;4956751;28;20487;-87
2023/11/11 02:56:49;;;;;;;1.60;1.30;;;7.70;98.20;;;;;;4945830;28;20522;-86
2023/11/11 02:59:18;;;;;;;1.60;1.30;;;7.70;98.20;;;;;;4958524;28;20503;-86
2023/11/11 03:01:45;;;;;;;1.60;1.20;;;7.70;98.20;;;;;;4955569;28;20485;-86
2023/11/11 03:04:12;;;;;;;1.60;1.37;;;7.70;98.20;;;;;;4963274;28;20526;-86
2023/11/11 03:06:42;;;;;;;1.70;1.30;;;7.70;98.20;;;;;;4946778;28;20479;-86
2023/11/11 03:09:09;;;;;;;1.63;1.33;;;7.70;98.20;;;;;;4954331;28;20502;-85
2023/11/11 03:11:36;;;;;;;1.60;1.20;;;7.70;98.20;;;;;;4944560;28;20494;-85
2023/11/11 03:14:03;;;;;;;5.70;3.00;;;7.70;98.20;;;;;;4954822;28;20610;-86
2023/11/11 03:16:36;;;;;;;1.60;1.27;;;7.70;98.20;;;;;;4946374;28;20478;-86
2023/11/11 03:19:03;;;;;;;1.60;1.20;;;7.70;98.20;;;;;;4958939;28;20491;-86
2023/11/11 03:21:30;;;;;;;1.60;1.20;;;7.70;98.20;;;;;;4948315;28;20580;-86
2023/11/11 03:23:57;;;;;;;1.60;1.23;;;7.70;98.20;;;;;;4956096;28;20977;-86
2023/11/11 03:26:24;;;;;;;1.60;1.33;;;7.70;98.20;;;;;;4954087;28;20557;-86
2023/11/11 03:28:52;;;;;;;1.60;1.20;;;7.60;98.20;;;;;;4970785;28;20483;-85
2023/11/11 03:31:19;;;;;;;1.60;1.30;;;7.60;98.20;;;;;;4953110;28;20474;-85
2023/11/11 03:33:47;;;;;;;1.60;1.30;;;7.60;98.20;;;;;;4970443;28;20481;-86
2023/11/11 03:36:14;;;;;;;1.60;1.30;;;7.60;98.20;;;;;;4946390;28;21029;-88
2023/11/11 03:38:41;;;;;;;1.60;1.30;;;7.50;98.20;;;;;;4973735;28;20477;-87
2023/11/11 03:41:08;;;;;;;1.60;1.30;;;7.50;98.20;;;;;;4947619;28;20653;-86
2023/11/11 03:43:35;;;;;;;1.60;1.30;;;7.50;98.20;;;;;;4958146;28;20479;-86
2023/11/11 03:46:03;;;;;;;1.60;1.30;;;7.50;98.20;;;;;;4943619;28;20478;-86
2023/11/11 03:48:30;;;;;;;1.60;1.20;;;7.60;98.20;;;;;;4971288;28;20714;-87
2023/11/11 03:51:01;;;;;;;1.60;1.20;;;7.60;98.20;;;;;;4951143;28;20471;-85
2023/11/11 03:53:28;;;;;;;1.60;1.20;;;7.60;98.20;;;;;;4972451;28;20469;-84
2023/11/11 03:55:55;;;;;;;1.60;1.40;;;7.60;98.20;;;;;;4946393;28;20510;-84
2023/11/11 03:58:22;;;;;;;1.60;1.37;;;7.60;98.20;;;;;;4984579;28;20997;-86
2023/11/11 04:00:50;;;;;;;1.60;1.30;;;7.60;98.20;;;;;;4951870;28;20490;-86
2023/11/11 04:03:17;;;;;;;1.60;1.20;;;7.60;98.20;;;;;;4979615;28;20467;-87
2023/11/11 04:05:46;;;;;;;1.60;1.20;;;7.60;98.20;;;;;;4956358;28;20495;-86
2023/11/11 04:08:14;;;;;;;1.83;1.63;;;7.70;98.20;;;;;;4951286;28;20478;-85
2023/11/11 04:10:41;;;;;;;1.60;1.30;;;7.70;98.20;;;;;;4961386;28;20497;-85
2023/11/11 04:13:09;;;;;;;1.60;1.20;;;7.70;98.20;;;;;;4973741;28;20538;-86
2023/11/11 04:15:36;;;;;;;1.60;1.37;;;7.70;98.20;;;;;;4958328;28;20514;-86
2023/11/11 04:18:02;;;;;;;1.60;1.30;;;7.70;98.20;;;;;;4966370;28;20584;-85
2023/11/11 04:20:29;;;;;;;1.67;1.40;;;7.70;98.20;;;;;;4962800;28;20477;-86
2023/11/11 04:22:56;;;;;;;1.60;1.33;;;7.70;98.20;;;;;;4974321;28;21131;-84
2023/11/11 04:25:24;;;;;;;1.60;1.30;;;7.60;98.20;;;;;;4956857;28;20873;-86
2023/11/11 04:27:51;;;;;;;1.60;1.30;;;7.60;98.20;;;;;;4948516;28;20500;-87
2023/11/11 04:30:18;;;;;;;1.60;1.30;;;7.60;98.20;;;;;;4956529;28;20481;-85
2023/11/11 04:32:45;;;;;;;1.67;1.40;;;7.50;98.20;;;;;;4948909;28;20502;-86
2023/11/11 04:35:13;;;;;;;1.60;1.23;;;7.50;98.20;;;;;;4948579;28;20487;-87
2023/11/11 04:37:40;;;;;;;1.60;1.27;;;7.50;98.20;;;;;;4972860;28;20481;-84
2023/11/11 04:40:08;;;;;;;1.60;1.30;;;7.40;98.20;;;;;;4946220;28;20514;-85
2023/11/11 04:42:38;;;;;;;1.60;1.30;;;7.40;98.20;;;;;;4951428;28;20487;-85
2023/11/11 04:45:06;;;;;;;1.60;1.27;;;7.40;98.20;;;;;;4959541;28;20466;-86
2023/11/11 04:47:33;;;;;;;1.63;1.30;;;7.40;98.20;;;;;;4947847;28;20475;-85
2023/11/11 04:50:00;;;;;;;1.60;1.20;;;7.40;98.20;;;;;;4959169;28;20466;-88
2023/11/11 04:52:27;;;;;;;1.60;1.20;;;7.40;98.20;;;;;;4948446;28;20474;-86
2023/11/11 04:54:54;;;;;;;1.60;1.30;;;7.40;98.20;;;;;;4963399;28;20497;-86
2023/11/11 04:57:20;;;;;;;1.60;1.30;;;7.40;98.20;;;;;;4962058;28;20877;-86
2023/11/11 04:59:49;;;;;;;1.60;1.20;;;7.40;98.20;;;;;;4963137;28;20467;-87
2023/11/11 05:02:16;;;;;;;1.60;1.20;;;7.40;98.20;;;;;;4966208;28;20492;-85
2023/11/11 05:04:43;;;;;;;1.60;1.20;;;7.40;98.20;;;;;;4965868;28;20498;-86
2023/11/11 05:07:11;;;;;;;1.60;1.20;;;7.40;98.20;;;;;;4958823;28;20570;-85
2023/11/11 05:09:38;;;;;;;1.60;1.20;;;7.40;98.20;;;;;;4962749;28;20470;-85
2023/11/11 05:12:07;;;;;;;1.63;1.40;;;7.40;98.20;;;;;;4945277;28;20489;-80
2023/11/11 05:14:33;;;;;;;1.63;1.30;;;7.40;98.20;;;;;;4950739;29;20471;-84
2023/11/11 05:17:07;;;;;;;1.70;1.40;;;7.40;98.20;;;;;;4944739;28;20498;-84
2023/11/11 05:19:34;;;;;;;1.93;1.70;;;7.40;98.20;;;;;;4958912;28;20554;-85
2023/11/11 05:22:02;;;;;;;1.60;1.30;;;7.40;98.20;;;;;;4948800;28;21022;-84
2023/11/11 05:24:29;;;;;;;1.60;1.20;;;7.50;98.20;;;;;;4959166;28;20498;-86
2023/11/11 05:26:55;;;;;;;1.60;1.20;;;7.50;98.20;;;;;;4948920;28;20488;-84
2023/11/11 05:29:22;;;;;;;1.60;1.20;;;7.50;98.20;;;;;;4961020;29;20477;-85
2023/11/11 05:31:49;;;;;;;1.87;1.40;;;7.50;98.20;;;;;;4950513;28;20542;-85
2023/11/11 05:34:17;;;;;;;1.60;1.20;;;7.50;98.20;;;;;;4960270;28;20463;-85
2023/11/11 05:36:44;;;;;;;1.60;1.20;;;7.60;98.20;;;;;;4944837;28;20486;-83
2023/11/11 05:39:14;;;;;;;1.60;1.30;;;7.60;98.20;;;;;;4960698;28;20495;-84
2023/11/11 05:41:40;;;;;;;1.60;1.20;;;7.60;98.20;;;;;;4962729;28;20491;-85
2023/11/11 05:44:08;;;;;;;1.60;1.30;;;7.60;98.20;;;;;;4973038;28;20970;-84
2023/11/11 05:46:35;;;;;;;1.60;1.20;;;7.60;98.20;;;;;;4949320;28;20518;-85
2023/11/11 05:49:01;;;;;;;1.60;1.20;;;7.60;98.20;;;;;;4959872;28;20509;-85
2023/11/11 05:51:30;;;;;;;1.60;1.30;;;7.60;98.20;;;;;;4954785;28;20471;-85
2023/11/11 05:53:57;;;;;;;1.60;1.30;;;7.60;98.20;;;;;;4952951;28;20502;-83
2023/11/11 05:56:24;;;;;;;1.60;1.27;;;7.60;98.20;;;;;;4940794;28;20482;-84
2023/11/11 05:58:51;;;;;;;1.60;1.23;;;7.60;98.20;;;;;;4956122;29;21068;-84
2023/11/11 06:01:18;;;;;;;1.60;1.30;;;7.60;98.20;;;;;;4950990;28;20496;-84
2023/11/11 06:03:45;;;;;;;1.60;1.20;;;7.60;98.20;;;;;;4969628;28;20557;-84
2023/11/11 06:06:12;;;;;;;1.60;1.30;;;7.50;98.20;;;;;;4949511;28;21408;-84
2023/11/11 06:08:40;;;;;;;1.60;1.30;;;7.50;98.20;;;;;;4970344;28;20538;-84
2023/11/11 06:11:07;;;;;;;1.60;1.20;;;7.50;98.20;;;;;;4949899;28;20475;-84
2023/11/11 06:13:34;;;;;;;1.60;1.30;;;7.40;98.20;;;;;;4975152;28;20459;-84
2023/11/11 06:16:02;;;;;;;1.60;1.20;;;7.30;98.20;;;;;;4950459;28;20482;-85
2023/11/11 06:18:28;;;;;;;1.60;1.20;;;7.30;98.20;;;;;;4969459;28;20482;-85
2023/11/11 06:20:56;;;;;;;1.60;1.20;;;7.30;98.20;;;;;;4946461;28;20966;-83
2023/11/11 06:23:23;;;;;;;1.60;1.30;;;7.20;98.20;;;;;;4992373;28;20501;-85
2023/11/11 06:25:51;;;;;;;1.60;1.30;;;7.20;98.20;;;;;;4967775;28;20458;-86
2023/11/11 06:28:18;;;;;;;1.60;1.30;;;7.10;98.20;;;;;;4989845;28;20566;-85
2023/11/11 06:30:45;;;;;;;1.60;1.20;;;7.10;98.20;;;;;;4978572;28;20462;-83
2023/11/11 06:33:12;;;;;;;1.60;1.20;;;7.10;98.20;;;;;;4964408;28;20485;-84
2023/11/11 06:35:39;;;;;;;1.70;1.30;;;7.00;98.20;;;;;;4978465;28;20486;-84
2023/11/11 06:38:06;;;;;;;1.60;1.30;;;7.00;98.20;;;;;;4984458;28;20487;-85
2023/11/11 06:40:33;;;;;;;1.60;1.30;;;7.00;98.20;;;;;;4978461;28;20472;-86
2023/11/11 06:43:01;;;;;;;1.67;1.20;;;7.00;98.20;;;;;;4983634;28;20689;-85
2023/11/11 06:45:30;;;;;;;1.60;1.30;;;7.00;98.20;;;;;;4975695;28;20533;-85
2023/11/11 06:47:56;;;;;;;1.60;1.20;;;6.90;98.20;;;;;;4976984;28;20551;-84
2023/11/11 06:50:24;;;;;;;1.70;1.40;;;6.90;98.20;;;;;;4977838;28;20472;-84
2023/11/11 06:52:51;;;;;;;1.67;1.30;;;6.90;98.20;;;;;;4983091;28;20532;-88
2023/11/11 06:55:18;;;;;;;1.60;1.27;;;6.90;98.20;;;;;;4978247;28;20486;-87
2023/11/11 06:57:45;;;;;;;1.60;1.30;;;6.90;98.20;;;;;;4984996;28;20504;-84
2023/11/11 07:00:18;;;;;;;1.60;1.30;;;6.80;98.20;;;;;;4980758;28;20509;-85
2023/11/11 07:02:47;;;;;;;1.60;1.30;;;6.80;98.20;;;;;;4983788;28;20480;-84
2023/11/11 07:05:14;;;;;;;1.70;1.40;;;6.80;98.20;;;;;;4976169;28;20880;-86
2023/11/11 07:07:41;;;;;;;1.70;1.40;;;6.80;98.20;;;;;;4985911;28;20485;-85
2023/11/11 07:10:11;;;;;;;1.70;1.30;;;6.80;98.20;;;;;;4979102;28;20512;-84
2023/11/11 07:12:38;;;;;;;1.60;1.30;;;6.80;98.20;;;;;;4981316;28;20495;-84
2023/11/11 07:15:07;;;;;;;1.60;1.30;;;6.80;98.20;;;;;;4976655;28;20467;-83
2023/11/11 07:17:35;;;;;;;1.60;1.23;;;6.80;98.20;;;;;;4977672;28;20600;-84
2023/11/11 07:20:04;;;;;;;1.60;1.30;;;6.80;98.20;;;;;;4981196;28;20473;-84
2023/11/11 07:22:31;;;;;;;1.70;1.40;;;6.80;98.20;;;;;;4981768;28;20570;-84
2023/11/11 07:24:58;;;;;;;1.70;1.30;;;6.80;98.20;;;;;;4977399;28;20473;-83
2023/11/11 07:27:25;;;;;;;1.63;1.30;;;6.80;98.20;;;;;;4981617;28;20901;-85
2023/11/11 07:29:53;;;;;;;1.60;1.30;;;6.70;98.20;;;;;;4982262;28;20468;-85
2023/11/11 07:32:19;;;;;;;1.60;1.20;;;6.70;98.20;;;;;;4977614;28;20485;-85
2023/11/11 07:34:48;;;;;;;1.70;1.30;;;6.80;98.20;;;;;;4983816;28;21013;-84
2023/11/11 07:37:14;;;;;;;1.80;1.30;;;6.80;98.20;;;;;;4976843;28;20522;-85
2023/11/11 07:39:43;;;;;;;5.73;5.20;;;6.80;98.20;;;;;;4984674;28;20532;-84
2023/11/11 07:42:10;;;;;;;1.60;1.30;;;6.80;98.20;;;;;;4978948;28;20768;-84
2023/11/11 07:44:37;;;;;;;1.60;1.20;;;6.80;98.20;;;;;;4982307;28;20458;-85
2023/11/11 07:47:06;;;;;;;1.63;1.30;;;6.80;98.20;;;;;;4980001;28;21018;-84
2023/11/11 07:49:33;;;;;;;1.60;1.27;;;6.80;98.20;;;;;;4983596;28;20525;-84
2023/11/11 07:52:02;;;;;;;1.60;1.20;;;6.80;98.20;;;;;;4974997;28;20493;-84
2023/11/11 07:54:29;;;;;;;1.60;1.30;;;6.80;98.20;;;;;;4984900;28;20549;-84
2023/11/11 07:56:57;;;;;;;1.60;1.30;;;6.90;98.20;;;;;;4975054;28;21129;-84
2023/11/11 07:59:23;;;;;;;1.60;1.30;;;6.90;98.20;;;;;;4981767;28;20533;-83
2023/11/11 08:01:50;;;;;;;1.60;1.30;;;6.90;98.20;;;;;;4974748;28;20476;-83
2023/11/11 08:04:17;;;;;;;1.70;1.50;;;7.00;98.20;;;;;;4979971;28;20469;-85
2023/11/11 08:06:44;;;;;;;1.60;1.20;;;7.10;98.20;;;;;;4965524;28;20521;-86
2023/11/11 08:09:13;;;;;;;1.70;1.30;;;7.10;98.20;;;;;;4963438;28;20555;-84
2023/11/11 08:11:40;;;;;;;1.60;1.30;;;7.10;98.20;;;;;;4958675;28;20469;-85
2023/11/11 08:14:07;;;;;;;1.63;1.30;;;7.10;98.20;;;;;;4981114;28;20474;-85
2023/11/11 08:16:34;;;;;;;1.60;1.30;;;7.10;98.20;;;;;;4970267;28;20492;-84
2023/11/11 08:19:02;;;;;;;1.60;1.20;;;7.10;98.20;;;;;;4981036;28;20473;-85
2023/11/11 08:21:32;;;;;;;1.97;1.77;;;7.10;98.20;;;;;;4969234;28;20492;-85
2023/11/11 08:23:59;;;;;;;1.60;1.30;;;7.10;98.20;;;;;;4982253;28;20458;-85
2023/11/11 08:26:27;;;;;;;1.60;1.30;;;7.10;98.20;;;;;;4968316;28;20604;-85
2023/11/11 08:28:54;;;;;;;1.60;1.30;;;7.20;98.20;;;;;;4987174;28;20791;-84
2023/11/11 08:31:21;;;;;;;1.60;1.30;;;7.10;98.20;;;;;;4965949;28;20500;-83
2023/11/11 08:33:48;;;;;;;1.63;1.30;;;7.10;98.20;;;;;;4983446;28;20545;-82
2023/11/11 08:36:15;;;;;;;1.63;1.30;;;7.20;98.20;;;;;;4961109;28;20483;-84
2023/11/11 08:38:42;;;;;;;1.70;1.60;;;7.20;98.20;;;;;;4970538;28;20485;-83
2023/11/11 08:41:09;;;;;;;1.70;1.40;;;7.30;98.20;;;;;;4960206;28;20476;-81
2023/11/11 08:43:38;;;;;;;1.60;1.20;;;7.40;98.20;;;;;;4978870;28;20477;-82
2023/11/11 08:46:07;;;;;;;1.60;1.30;;;7.50;98.20;;;;;;4960883;28;20457;-82
2023/11/11 08:48:38;;;;;;;1.60;1.20;;;7.70;98.20;;;;;;4979446;28;20595;-82
2023/11/11 08:51:05;;;;;;;1.60;1.17;;;7.80;98.20;;;;;;4959960;28;20478;-82
2023/11/11 08:53:33;;;;;;;1.60;1.30;;;7.90;98.20;;;;;;4981405;28;20556;-82
2023/11/11 08:56:00;;;;;;;1.60;1.20;;;7.90;98.20;;;;;;4958128;28;20847;-82
2023/11/11 08:58:27;;;;;;;1.70;1.20;;;8.00;98.20;;;;;;4981957;28;20493;-82
2023/11/11 09:00:56;;;;;;;1.60;1.30;;;8.00;98.20;;;;;;4962642;28;20943;-84
2023/11/11 09:03:23;;;;;;;1.70;1.40;;;8.10;98.20;;;;;;4989637;28;20558;-82
2023/11/11 09:05:50;;;;;;;1.60;1.20;;;8.10;98.20;;;;;;4969450;28;20474;-84
2023/11/11 09:08:16;;;;;;;1.60;1.23;;;8.20;98.20;;;;;;4986480;28;20569;-83
2023/11/11 09:10:44;;;;;;;1.60;1.20;;;8.20;98.20;;;;;;4978861;28;20462;-83
2023/11/11 09:13:11;;;;;;;1.60;1.20;;;8.30;98.20;;;;;;4976210;28;20484;-83
2023/11/11 09:15:38;;;;;;;1.60;1.20;;;8.40;98.20;;;;;;4976163;28;21070;-83
2023/11/11 09:18:07;;;;;;;1.60;1.20;;;8.40;98.20;;;;;;4978095;28;20485;-84
2023/11/11 09:20:35;;;;;;;1.60;1.20;;;8.50;98.20;;;;;;4983324;28;20462;-83
2023/11/11 09:23:01;;;;;;;1.63;1.20;;;8.50;98.20;;;;;;4976051;28;20645;-84
2023/11/11 09:25:29;;;;;;;1.60;1.20;;;8.60;98.20;;;;;;4971682;28;20539;-83
2023/11/11 09:27:57;;;;;;;1.60;1.20;;;8.60;98.20;;;;;;4974889;28;20539;-88
2023/11/11 09:30:24;;;;;;;1.60;1.20;;;8.70;98.20;;;;;;4969403;28;20969;-83
2023/11/11 09:32:53;;;;;;;1.60;1.20;;;8.70;98.20;;;;;;4976935;28;20484;-82
2023/11/11 09:35:21;;;;;;;1.60;1.20;;;8.90;98.20;;;;;;4969126;28;20889;-82
2023/11/11 09:37:49;;;;;;;1.60;1.20;;;9.00;98.20;;;;;;4973025;28;21019;-83
2023/11/11 09:40:16;;;;;;;1.60;1.20;;;9.20;98.20;;;;;;4968465;28;21114;-83
2023/11/11 09:42:46;;;;;;;1.63;1.20;;;9.40;98.20;;;;;;4974913;28;20910;-83
2023/11/11 09:45:14;;;;;;;1.60;1.10;;;9.60;98.20;;;;;;4971047;28;20840;-84
2023/11/11 09:47:44;;;;;;;1.80;1.60;;;9.70;98.20;;;;;;4976922;28;20492;-82
2023/11/11 09:50:13;;;;;;;1.60;1.10;;;9.80;98.20;;;;;;4968694;28;20524;-82
2023/11/11 09:52:43;;;;;;;1.60;1.10;;;9.80;98.20;;;;;;4974404;28;20889;-81
2023/11/11 09:55:13;;;;;;;1.60;1.20;;;9.70;98.20;;;;;;4970172;28;20997;-84
2023/11/11 09:57:40;;;;;;;1.83;1.63;;;9.70;98.20;;;;;;4957128;28;20489;-82
2023/11/11 10:00:10;;;;;;;1.60;1.10;;;9.70;98.20;;;;;;4952044;28;20474;-85
2023/11/11 10:02:37;;;;;;;1.60;1.20;;;9.70;98.20;;;;;;4972486;28;20504;-84
2023/11/11 10:05:05;;;;;;;1.60;1.10;;;9.70;98.20;;;;;;4972598;28;20477;-82
2023/11/11 10:07:33;;;;;;;1.60;1.20;;;9.70;98.20;;;;;;4992036;28;20508;-82
2023/11/11 10:10:01;;;;;;;1.60;1.20;;;9.70;98.20;;;;;;4967600;28;20470;-84
2023/11/11 10:12:30;;;;;;;1.60;1.20;;;9.70;98.20;;;;;;4970453;28;20489;-84
2023/11/11 10:15:02;;;;;;;1.60;1.10;;;9.70;98.20;;;;;;4975469;28;20548;-84
2023/11/11 10:17:29;;;;;;;1.60;1.20;;;9.80;98.20;;;;;;4977191;28;20838;-83
2023/11/11 10:19:59;;;;;;;1.60;1.10;;;9.90;98.20;;;;;;4973388;28;20473;-83
2023/11/11 10:22:26;;;;;;;1.60;1.20;;;9.90;98.20;;;;;;4973167;28;20899;-84
2023/11/11 10:24:53;;;;;;;1.60;1.10;;;9.90;98.20;;;;;;4971580;28;20850;-84
2023/11/11 10:27:21;;;;;;;1.60;1.10;;;9.90;98.20;;;;;;4974395;28;20477;-84
2023/11/11 10:29:48;;;;;;;1.60;1.10;;;9.90;98.20;;;;;;4968405;28;20474;-83
2023/11/11 10:32:17;;;;;;;1.60;1.20;;;10.00;98.20;;;;;;4970321;28;20625;-83
2023/11/11 10:34:44;;;;;;;1.60;1.10;;;9.90;98.20;;;;;;4971792;28;20544;-83
2023/11/11 10:37:11;;;;;;;1.60;1.10;;;9.80;98.20;;;;;;4968375;28;20908;-85
2023/11/11 10:39:39;;;;;;;1.60;1.10;;;9.80;98.20;;;;;;4973020;28;20868;-84
2023/11/11 10:42:06;;;;;;;1.60;1.10;;;9.90;98.20;;;;;;4973283;28;20489;-84
2023/11/11 10:44:35;;;;;;;1.60;1.20;;;9.90;98.20;;;;;;4976511;28;20469;-86
2023/11/11 10:47:02;;;;;;;1.60;1.00;;;10.00;98.20;;;;;;4971900;28;20496;-84
2023/11/11 10:49:29;;;;;;;1.60;1.10;;;10.00;98.20;;;;;;4977550;28;20462;-84
2023/11/11 10:51:58;;;;;;;1.60;1.20;;;10.10;98.20;;;;;;4969159;28;20485;-84
2023/11/11 10:54:26;;;;;;;1.60;1.10;;;10.10;98.20;;;;;;4972544;28;20950;-83
2023/11/11 10:56:54;;;;;;;1.60;1.10;;;10.20;98.20;;;;;;4968826;28;20560;-84
2023/11/11 10:59:24;;;;;;;1.60;1.10;;;10.30;98.20;;;;;;4971027;28;20474;-84
2023/11/11 11:01:54;;;;;;;1.60;1.20;;;10.40;98.20;;;;;;4967107;28;21172;-84
2023/11/11 11:04:25;;;;;;;1.60;1.00;;;10.50;98.20;;;;;;4975925;28;20520;-83
2023/11/11 11:06:58;;;;;;;1.60;1.10;;;10.50;98.20;;;;;;4967886;28;20549;-83
2023/11/11 11:09:34;;;;;;;1.60;1.10;;;10.60;98.20;;;;;;4975870;28;20472;-85
2023/11/11 11:12:11;;;;;;;1.60;1.10;;;10.60;98.20;;;;;;4970116;28;20575;-84
2023/11/11 11:14:47;;;;;;;1.60;1.10;;;10.50;98.20;;;;;;4973881;28;20477;-82
2023/11/11 11:17:16;;;;;;;1.60;1.10;;;10.60;98.20;;;;;;4967300;28;20564;-85
2023/11/11 11:20:00;;;;;;;1.60;1.00;;;10.60;98.20;;;;;;4971958;28;20485;-82
2023/11/11 11:22:34;;;;;;;1.60;1.10;;;10.60;98.20;;;;;;4962021;28;20474;-83
2023/11/11 11:25:31;;;;;;;1.60;1.20;;;10.50;98.20;;;;;;4948283;28;20470;-83
2023/11/11 11:28:18;;;;;;;1.60;1.20;;;10.50;98.20;;;;;;4953867;28;20608;-83
2023/11/11 11:30:47;;;;;;;1.60;1.10;;;10.50;98.20;;;;;;4948660;28;20970;-83
2023/11/11 11:33:17;;;;;;;1.60;1.00;;;10.50;98.20;;;;;;4957649;28;20486;-82
2023/11/11 11:36:17;;;;;;;1.57;1.00;;;10.40;98.20;;;;;;4971734;28;20915;-82
2023/11/11 11:38:46;;;;;;;1.60;1.10;;;10.40;98.20;;;;;;4910226;29;20797;-82
2023/11/11 11:41:20;;;;;;;1.60;1.10;;;10.40;98.20;;;;;;4899161;29;21058;-81
2023/11/11 11:43:53;;;;;;;1.70;1.43;;;10.50;98.20;;;;;;4949112;28;20462;-82
2023/11/11 11:46:21;;;;;;;1.57;1.07;;;10.50;98.20;;;;;;4959296;28;20485;-83
2023/11/11 11:48:51;;;;;;;1.60;1.00;;;10.50;98.20;;;;;;4959567;28;20463;-83
2023/11/11 11:51:19;;;;;;;1.60;1.10;;;10.60;98.20;;;;;;4954319;28;20481;-82
2023/11/11 11:53:48;;;;;;;1.60;1.10;;;10.70;98.20;;;;;;4979433;28;20493;-84
2023/11/11 11:56:27;;;;;;;1.60;1.10;;;10.80;98.20;;;;;;4961840;28;20546;-84
2023/11/11 11:58:55;;;;;;;1.60;1.03;;;11.00;98.20;;;;;;4974243;28;20476;-82
2023/11/11 12:01:23;;;;;;;1.60;1.10;;;11.10;98.20;;;;;;4961679;28;20484;-82
2023/11/11 12:03:51;;;;;;;1.60;1.00;;;11.20;98.20;;;;;;4981598;28;20470;-84
2023/11/11 12:06:19;;;;;;;1.57;1.00;;;11.20;98.20;;;;;;4967110;28;20531;-83
2023/11/11 12:08:50;;;;;;;1.60;1.00;;;11.20;98.20;;;;;;4982579;28;20577;-83
2023/11/11 12:11:25;;;;;;;1.60;1.10;;;11.20;98.20;;;;;;4961081;28;20469;-83
2023/11/11 12:13:52;;;;;;;1.60;1.10;;;11.20;98.20;;;;;;4978758;28;20505;-83
2023/11/11 12:16:19;;;;;;;1.60;1.13;;;11.10;98.20;;;;;;4960970;28;20473;-83
2023/11/11 12:18:47;;;;;;;1.63;1.10;;;11.10;98.20;;;;;;4977715;28;20577;-84
2023/11/11 12:21:18;;;;;;;1.60;1.10;;;11.00;98.20;;;;;;4961033;28;20473;-83
2023/11/11 12:23:46;;;;;;;1.60;1.10;;;10.90;98.20;;;;;;4980985;28;20550;-82
2023/11/11 12:26:14;;;;;;;1.60;1.10;;;10.80;98.20;;;;;;4961624;28;20501;-82
2023/11/11 12:28:42;;;;;;;1.60;1.10;;;10.70;98.20;;;;;;4979555;28;20554;-81
2023/11/11 12:31:08;;;;;;;1.60;1.10;;;10.60;98.20;;;;;;4959617;28;20560;-83
2023/11/11 12:33:35;;;;;;;1.60;1.10;;;10.50;98.20;;;;;;4978363;28;20559;-81
2023/11/11 12:36:03;;;;;;;1.60;1.10;;;10.40;98.20;;;;;;4959366;28;20480;-83
2023/11/11 12:38:32;;;;;;;1.60;1.10;;;10.30;98.20;;;;;;4973390;28;20596;-81
2023/11/11 12:41:00;;;;;;;1.60;1.10;;;10.30;98.20;;;;;;4958458;28;20466;-82
2023/11/11 12:43:27;;;;;;;1.60;1.10;;;10.20;98.20;;;;;;4979430;28;20573;-81
2023/11/11 12:45:55;;;;;;;1.60;1.10;;;10.30;98.20;;;;;;4959521;28;20485;-81
2023/11/11 12:48:31;;;;;;;1.60;1.00;;;10.30;98.20;;;;;;4979823;28;20497;-82
2023/11/11 12:51:28;;;;;;;1.60;1.10;;;10.40;98.20;;;;;;4960310;28;20490;-84
2023/11/11 12:53:57;;;;;;;1.60;1.20;;;10.50;98.20;;;;;;4977224;28;20466;-82
2023/11/11 12:56:24;;;;;;;2.30;2.10;;;10.70;98.20;;;;;;4962054;28;20575;-85
2023/11/11 12:59:14;;;;;;;1.57;1.00;;;10.80;98.20;;;;;;4982244;28;20486;-83
2023/11/11 13:04:42;;;;;;;1.60;1.10;;;11.10;98.20;;;;;;4971848;28;20557;-82